Terminal Aerodrome Forecast
Issued by NWS

Home | Current Version | Previous Version | Text Only | Print | Product List | Glossary On
Versions: 1 2 3 4 5 6 7 8 9 10 11 12 13 14 15 16 17 18 19 20 21 22 23 24 25 26
000
FTUS46 KMFR 291550 AAB
TAFOTH
TAF AMD
KOTH 291550Z 2916/3012 36006KT P6SM OVC010
     FM291800 35015G22KT P6SM OVC015
     FM300300 18006KT 3SM BR OVC015
      AMD NOT SKED=

USA.gov is the U.S. government's official web portal to all federal, state and local government web resources and services.